createdAt,value
2023-04-05T00:00:13.048Z,2.00
2023-04-05T00:03:02.767Z,2.00
2023-04-05T00:05:54.853Z,2.20
2023-04-05T00:08:45.505Z,2.03
2023-04-05T00:11:35.396Z,1.80
2023-04-05T00:14:24.724Z,2.10
2023-04-05T00:17:14.413Z,2.00
2023-04-05T00:20:08.921Z,2.10
2023-04-05T00:22:58.167Z,2.00
2023-04-05T00:25:47.731Z,1.98
2023-04-05T00:28:37.301Z,2.08
2023-04-05T00:31:26.725Z,2.30
2023-04-05T00:34:15.977Z,2.10
2023-04-05T00:37:05.324Z,2.00
2023-04-05T00:39:54.964Z,2.00
2023-04-05T00:42:44.772Z,2.20
2023-04-05T00:45:34.061Z,1.98
2023-04-05T00:48:23.845Z,2.00
2023-04-05T00:51:13.215Z,2.20
2023-04-05T00:54:04.097Z,2.03
2023-04-05T00:56:54.402Z,2.20
2023-04-05T00:59:43.847Z,2.00
2023-04-05T01:02:35.584Z,2.00
2023-04-05T01:05:37.704Z,2.00
2023-04-05T01:09:03.785Z,2.10
2023-04-05T01:11:57.763Z,1.98
2023-04-05T01:14:52.421Z,2.22
2023-04-05T01:17:43.452Z,2.15
2023-04-05T01:20:38.987Z,2.10
2023-04-05T01:23:52.667Z,2.20
2023-04-05T01:26:55.964Z,2.00
2023-04-05T01:30:07.805Z,2.00
2023-04-05T01:32:57.540Z,2.13
2023-04-05T01:35:55.849Z,2.00
2023-04-05T01:38:50.278Z,2.22
2023-04-05T01:41:41.622Z,2.25
2023-04-05T01:44:31.222Z,2.20
2023-04-05T01:47:21.814Z,2.20
2023-04-05T01:50:11.741Z,1.95
2023-04-05T01:53:01.093Z,2.00
2023-04-05T01:55:50.368Z,1.90
2023-04-05T01:58:40.338Z,2.20
2023-04-05T02:01:29.720Z,2.05
2023-04-05T02:04:19.596Z,1.98
2023-04-05T02:07:08.888Z,2.20
2023-04-05T02:09:58.191Z,1.90
2023-04-05T02:12:47.565Z,1.90
2023-04-05T02:15:36.844Z,2.00
2023-04-05T02:18:32.391Z,1.73
2023-04-05T02:21:22.996Z,2.10
2023-04-05T02:24:12.189Z,2.10
2023-04-05T02:27:02.050Z,2.45
2023-04-05T02:29:51.389Z,2.15
2023-04-05T02:32:43.652Z,2.10
2023-04-05T02:35:32.952Z,2.40
2023-04-05T02:38:22.330Z,2.67
2023-04-05T02:41:13.045Z,2.30
2023-04-05T02:44:02.319Z,2.50
2023-04-05T02:46:52.843Z,2.60
2023-04-05T02:49:47.619Z,2.45
2023-04-05T02:52:39.146Z,2.50
2023-04-05T02:55:32.201Z,2.40
2023-04-05T02:58:22.093Z,2.10
2023-04-05T03:01:12.032Z,2.20
2023-04-05T03:04:02.230Z,2.17
2023-04-05T03:06:55.551Z,2.50
2023-04-05T03:09:47.649Z,2.58
2023-04-05T03:12:37.626Z,2.28
2023-04-05T03:15:29.159Z,2.40
2023-04-05T03:18:21.857Z,2.40
2023-04-05T03:21:13.245Z,2.55
2023-04-05T03:24:11.519Z,2.15
2023-04-05T03:27:05.302Z,2.13
2023-04-05T03:33:04.086Z,2.50
2023-04-05T03:36:04.065Z,2.53
2023-04-05T03:38:57.217Z,2.50
2023-04-05T03:41:46.699Z,2.50
2023-04-05T03:44:35.898Z,2.10
2023-04-05T03:47:25.298Z,2.30
2023-04-05T03:50:15.616Z,2.40
2023-04-05T03:53:05.313Z,2.15
2023-04-05T03:55:56.376Z,2.58
2023-04-05T03:59:08.534Z,2.55
2023-04-05T04:01:57.964Z,2.47
2023-04-05T04:04:48.303Z,2.70
2023-04-05T04:07:37.803Z,2.60
2023-04-05T04:10:27.185Z,2.40
2023-04-05T04:13:20.461Z,3.02
2023-04-05T04:16:19.208Z,2.75
2023-04-05T04:19:23.372Z,2.58
2023-04-05T04:22:39.770Z,2.78
2023-04-05T04:25:55.697Z,2.75
2023-04-05T04:29:20.186Z,2.70
2023-04-05T04:32:48.729Z,2.67
2023-04-05T04:35:56.385Z,2.90
2023-04-05T04:38:55.803Z,2.70
2023-04-05T04:42:23.936Z,2.92
2023-04-05T04:45:35.630Z,3.08
2023-04-05T04:48:43.265Z,3.08
2023-04-05T04:51:47.610Z,2.70
2023-04-05T04:54:37.908Z,2.80
2023-04-05T04:57:27.268Z,3.17
2023-04-05T05:00:17.887Z,3.08
2023-04-05T05:03:09.335Z,2.70
2023-04-05T05:05:58.658Z,2.80
2023-04-05T05:08:52.810Z,2.83
2023-04-05T05:11:42.160Z,2.83
2023-04-05T05:14:33.557Z,3.33
2023-04-05T05:17:22.925Z,3.38
2023-04-05T05:20:13.792Z,3.08
2023-04-05T05:23:08.935Z,2.88
2023-04-05T05:26:02.043Z,3.15
2023-04-05T05:28:51.649Z,3.00
2023-04-05T05:31:41.730Z,3.28
2023-04-05T05:34:30.977Z,2.80
2023-04-05T05:37:23.457Z,3.00
2023-04-05T05:40:14.402Z,3.10
2023-04-05T05:43:03.741Z,3.30
2023-04-05T05:45:53.347Z,3.22
2023-04-05T05:48:43.033Z,3.63
2023-04-05T05:51:33.508Z,3.20
2023-04-05T05:54:22.746Z,3.25
2023-04-05T05:57:12.091Z,3.47
2023-04-05T06:00:01.364Z,3.50
2023-04-05T06:03:00.623Z,3.28
2023-04-05T06:05:57.603Z,3.53
2023-04-05T06:08:48.613Z,3.53
2023-04-05T06:11:43.593Z,3.70
2023-04-05T06:14:42.852Z,3.53
2023-04-05T06:17:32.451Z,3.38
2023-04-05T06:20:21.750Z,3.83
2023-04-05T06:23:11.758Z,3.78
2023-04-05T06:26:01.099Z,3.70
2023-04-05T06:28:51.271Z,3.30
2023-04-05T06:31:42.752Z,3.67
2023-04-05T06:34:32.479Z,3.55
2023-04-05T06:37:21.925Z,3.60
2023-04-05T06:40:11.874Z,3.65
2023-04-05T06:43:01.177Z,3.70
2023-04-05T06:45:53.416Z,3.67
2023-04-05T06:48:45.081Z,3.78
2023-04-05T06:51:34.391Z,3.40
2023-04-05T06:54:26.980Z,4.03
2023-04-05T06:57:16.230Z,3.75
2023-04-05T07:00:15.192Z,3.53
2023-04-05T07:03:04.461Z,3.33
2023-04-05T07:05:55.015Z,3.42
2023-04-05T07:08:44.291Z,3.35
2023-04-05T07:11:34.089Z,4.85
2023-04-05T07:14:23.489Z,3.53
2023-04-05T07:17:12.847Z,3.40
2023-04-05T07:20:02.297Z,3.47
2023-04-05T07:22:51.611Z,3.40
2023-04-05T07:25:43.804Z,4.00
2023-04-05T07:28:34.692Z,3.60
2023-04-05T07:31:24.260Z,3.47
2023-04-05T07:34:15.113Z,3.65
2023-04-05T07:37:07.613Z,3.60
2023-04-05T07:39:57.141Z,3.73
2023-04-05T07:42:46.517Z,3.28
2023-04-05T07:45:35.824Z,3.88
2023-04-05T07:48:25.024Z,3.58
2023-04-05T07:51:14.422Z,3.13
2023-04-05T07:54:04.664Z,3.85
2023-04-05T07:56:54.201Z,3.50
2023-04-05T07:59:43.520Z,3.25
2023-04-05T08:02:33.120Z,3.63
2023-04-05T08:05:22.515Z,3.72
2023-04-05T08:08:12.372Z,3.60
2023-04-05T08:11:04.881Z,3.58
2023-04-05T08:13:55.548Z,3.73
2023-04-05T08:16:45.668Z,3.45
2023-04-05T08:19:35.174Z,3.70
2023-04-05T08:22:24.489Z,3.58
2023-04-05T08:25:13.782Z,4.20
2023-04-05T08:28:03.061Z,3.92
2023-04-05T08:30:58.956Z,3.83
2023-04-05T08:33:48.285Z,4.00
2023-04-05T08:36:37.566Z,3.53
2023-04-05T08:39:27.836Z,3.67
2023-04-05T08:42:25.663Z,3.90
2023-04-05T08:45:20.087Z,3.47
2023-04-05T08:48:09.371Z,3.40
2023-04-05T08:50:58.652Z,3.75
2023-04-05T08:53:47.901Z,4.35
2023-04-05T08:56:38.196Z,3.50
2023-04-05T08:59:27.721Z,3.50
2023-04-05T09:02:20.531Z,4.35
2023-04-05T09:05:13.910Z,4.25
2023-04-05T09:08:03.418Z,3.45
2023-04-05T09:10:53.865Z,4.03
2023-04-05T09:13:43.176Z,3.83
2023-04-05T09:16:38.815Z,3.78
2023-04-05T09:19:28.169Z,3.53
2023-04-05T09:22:19.611Z,4.15
2023-04-05T09:25:09.247Z,3.53
2023-04-05T09:27:58.977Z,4.18
2023-04-05T09:30:48.829Z,3.67
2023-04-05T09:33:38.482Z,4.22
2023-04-05T09:36:29.403Z,4.00
2023-04-05T09:39:22.878Z,3.55
2023-04-05T09:45:09.088Z,3.80
2023-04-05T09:48:03.083Z,3.80
2023-04-05T09:50:54.880Z,3.58
2023-04-05T09:54:00.998Z,3.75
2023-04-05T09:57:00.330Z,3.92
2023-04-05T09:59:49.939Z,3.80
2023-04-05T10:02:41.716Z,4.13
2023-04-05T10:05:31.616Z,4.18
2023-04-05T10:08:21.034Z,3.70
2023-04-05T10:11:11.770Z,4.10
2023-04-05T10:14:04.986Z,3.80
2023-04-05T10:17:12.814Z,3.95
2023-04-05T10:20:18.551Z,4.75
2023-04-05T10:23:18.672Z,3.92
2023-04-05T10:26:23.959Z,3.90
2023-04-05T10:29:26.965Z,3.97
2023-04-05T10:32:43.912Z,3.88
2023-04-05T10:35:42.873Z,4.00
2023-04-05T10:38:45.381Z,4.35
2023-04-05T10:42:02.361Z,4.85
2023-04-05T10:44:56.763Z,3.83
2023-04-05T10:47:56.888Z,3.88
2023-04-05T10:50:48.734Z,4.07
2023-04-05T10:53:39.946Z,3.72
2023-04-05T10:56:29.620Z,4.20
2023-04-05T10:59:20.010Z,4.30
2023-04-05T11:02:10.994Z,4.20
2023-04-05T11:05:06.018Z,4.05
2023-04-05T11:07:58.845Z,3.80
2023-04-05T11:10:54.560Z,3.97
2023-04-05T11:14:18.230Z,4.05
2023-04-05T11:17:26.765Z,4.03
2023-04-05T11:20:16.228Z,4.00
2023-04-05T11:23:05.578Z,4.00
2023-04-05T11:25:58.715Z,4.18
2023-04-05T11:28:48.084Z,4.50
2023-04-05T11:31:37.530Z,4.20
2023-04-05T11:34:27.219Z,4.15
2023-04-05T11:37:17.924Z,4.43
2023-04-05T11:40:32.815Z,4.30
2023-04-05T11:43:31.269Z,4.20
2023-04-05T11:46:20.555Z,4.40
2023-04-05T11:49:10.363Z,3.90
2023-04-05T11:52:00.574Z,4.38
2023-04-05T11:54:51.054Z,4.28
2023-04-05T11:57:40.268Z,4.80
2023-04-05T12:00:29.576Z,4.30
2023-04-05T12:03:19.100Z,4.15
2023-04-05T12:06:11.652Z,3.95
2023-04-05T12:09:00.892Z,4.30
2023-04-05T12:11:56.272Z,4.30
2023-04-05T12:14:45.646Z,4.13
2023-04-05T12:17:46.468Z,3.90
2023-04-05T12:20:35.847Z,3.83
2023-04-05T12:23:25.811Z,4.57
2023-04-05T12:26:15.674Z,3.85
2023-04-05T12:29:06.310Z,4.03
2023-04-05T12:31:58.537Z,4.13
2023-04-05T12:34:50.011Z,4.22
2023-04-05T12:37:41.033Z,4.15
2023-04-05T12:40:34.102Z,4.20
2023-04-05T12:43:24.275Z,3.78
2023-04-05T12:46:18.330Z,4.18
2023-04-05T12:49:07.991Z,4.00
2023-04-05T12:52:06.046Z,4.10
2023-04-05T12:54:56.470Z,3.83
2023-04-05T12:57:47.088Z,3.90
2023-04-05T13:00:36.768Z,3.70
2023-04-05T13:03:28.210Z,3.97
2023-04-05T13:06:17.518Z,4.30
2023-04-05T13:09:06.806Z,4.40
2023-04-05T13:11:56.106Z,4.10
2023-04-05T13:14:45.415Z,4.57
2023-04-05T13:17:34.793Z,4.13
2023-04-05T13:20:24.224Z,4.00
2023-04-05T13:23:14.372Z,4.10
2023-04-05T13:26:04.056Z,4.63
2023-04-05T13:28:53.352Z,4.43
2023-04-05T13:31:42.676Z,4.15
2023-04-05T13:34:32.593Z,4.30
2023-04-05T13:37:21.973Z,4.30
2023-04-05T13:40:11.628Z,4.18
2023-04-05T13:43:01.477Z,4.22
2023-04-05T13:45:51.028Z,4.30
2023-04-05T13:48:40.331Z,4.45
2023-04-05T13:51:35.307Z,3.75
2023-04-05T13:54:24.599Z,4.07
2023-04-05T13:57:15.573Z,3.80
2023-04-05T14:00:05.285Z,3.75
2023-04-05T14:03:00.722Z,3.30
2023-04-05T14:05:51.166Z,3.60
2023-04-05T14:08:41.723Z,3.50
2023-04-05T14:11:31.104Z,3.65
2023-04-05T14:14:20.304Z,3.85
2023-04-05T14:17:13.812Z,3.60
2023-04-05T14:20:03.005Z,3.67
2023-04-05T14:22:52.400Z,3.40
2023-04-05T14:25:41.963Z,3.85
2023-04-05T14:28:31.503Z,3.70
2023-04-05T14:31:20.803Z,3.83
2023-04-05T14:34:10.184Z,4.50
2023-04-05T14:37:01.162Z,4.03
2023-04-05T14:39:50.552Z,4.95
2023-04-05T14:42:48.556Z,3.58
2023-04-05T14:45:39.461Z,3.50
2023-04-05T14:48:31.284Z,3.67
2023-04-05T14:51:20.682Z,3.47
2023-04-05T14:54:10.168Z,3.85
2023-04-05T14:56:59.667Z,3.70
2023-04-05T14:59:48.969Z,3.97
2023-04-05T15:02:41.408Z,3.72
2023-04-05T15:05:30.676Z,3.80
2023-04-05T15:08:20.119Z,3.30
2023-04-05T15:11:09.525Z,3.47
2023-04-05T15:13:58.870Z,3.40
2023-04-05T15:16:48.413Z,3.72
2023-04-05T15:19:37.945Z,3.65
2023-04-05T15:22:27.219Z,4.22
2023-04-05T15:25:16.733Z,3.40
2023-04-05T15:28:07.023Z,3.40
2023-04-05T15:30:56.764Z,3.30
2023-04-05T15:33:46.049Z,3.90
2023-04-05T15:36:35.391Z,3.70
2023-04-05T15:39:25.954Z,3.30
2023-04-05T15:42:16.756Z,3.65
2023-04-05T15:45:06.758Z,3.50
2023-04-05T15:47:56.079Z,3.63
2023-04-05T15:50:45.445Z,3.97
2023-04-05T15:53:35.233Z,3.53
2023-04-05T15:56:24.581Z,3.10
2023-04-05T15:59:14.010Z,3.35
2023-04-05T16:02:04.400Z,3.90
2023-04-05T16:04:53.892Z,4.15
2023-04-05T16:07:43.214Z,3.80
2023-04-05T16:10:32.561Z,3.80
2023-04-05T16:13:22.046Z,3.63
2023-04-05T16:16:12.605Z,3.95
2023-04-05T16:21:54.529Z,3.88
2023-04-05T16:24:43.818Z,3.95
2023-04-05T16:27:34.829Z,3.55
2023-04-05T16:30:24.130Z,3.88
2023-04-05T16:33:13.478Z,3.95
2023-04-05T16:36:04.605Z,4.35
2023-04-05T16:38:53.983Z,3.90
2023-04-05T16:41:43.413Z,4.28
2023-04-05T16:44:33.445Z,4.03
2023-04-05T16:47:22.871Z,3.67
2023-04-05T16:50:12.408Z,4.35
2023-04-05T16:53:01.800Z,3.60
2023-04-05T16:55:51.102Z,3.58
2023-04-05T16:58:40.361Z,3.65
2023-04-05T17:01:29.788Z,3.55
2023-04-05T17:04:19.128Z,4.53
2023-04-05T17:07:08.949Z,3.15
2023-04-05T17:09:59.108Z,3.50
2023-04-05T17:12:48.608Z,3.40
2023-04-05T17:15:37.899Z,4.90
2023-04-05T17:18:27.333Z,3.10
2023-04-05T17:21:16.857Z,3.53
2023-04-05T17:24:06.374Z,3.38
2023-04-05T17:26:55.696Z,3.70
2023-04-05T17:29:44.965Z,3.20
2023-04-05T17:32:35.869Z,3.50
2023-04-05T17:35:25.245Z,3.42
2023-04-05T17:38:14.597Z,3.30
2023-04-05T17:41:04.399Z,3.10
2023-04-05T17:43:53.767Z,3.53
2023-04-05T17:46:51.163Z,3.40
2023-04-05T17:52:35.811Z,5.10
2023-04-05T17:55:25.526Z,3.25
2023-04-05T17:58:14.924Z,3.60
2023-04-05T18:01:04.239Z,3.20
2023-04-05T18:03:53.725Z,3.03
2023-04-05T18:06:43.141Z,3.50
2023-04-05T18:09:34.287Z,3.40
2023-04-05T18:12:23.588Z,3.30
2023-04-05T18:15:13.002Z,3.03
2023-04-05T18:18:02.697Z,3.35
2023-04-05T18:20:53.215Z,3.13
2023-04-05T18:23:42.576Z,2.85
2023-04-05T18:26:32.181Z,3.25
2023-04-05T18:29:21.631Z,3.38
2023-04-05T18:32:11.328Z,3.25
2023-04-05T18:35:00.656Z,3.42
2023-04-05T18:37:50.091Z,3.45
2023-04-05T18:40:39.402Z,3.47
2023-04-05T18:43:28.788Z,3.25
2023-04-05T18:46:19.560Z,3.10
2023-04-05T18:49:09.298Z,3.00
2023-04-05T18:51:58.777Z,3.22
2023-04-05T18:54:48.097Z,3.20
2023-04-05T18:57:37.455Z,3.17
2023-04-05T19:00:27.139Z,3.20
2023-04-05T19:03:17.452Z,3.35
2023-04-05T19:06:07.212Z,2.97
2023-04-05T19:08:56.522Z,2.92
2023-04-05T19:11:45.915Z,3.45
2023-04-05T19:14:35.967Z,3.03
2023-04-05T19:17:25.294Z,3.20
2023-04-05T19:20:14.674Z,3.42
2023-04-05T19:23:04.164Z,3.13
2023-04-05T19:25:55.435Z,3.53
2023-04-05T19:28:44.876Z,2.75
2023-04-05T19:31:34.368Z,3.05
2023-04-05T19:34:23.796Z,2.78
2023-04-05T19:37:13.164Z,3.42
2023-04-05T19:40:03.582Z,2.97
2023-04-05T19:42:53.618Z,3.20
2023-04-05T19:45:43.610Z,2.92
2023-04-05T19:48:43.732Z,3.38
2023-04-05T19:51:33.908Z,3.20
2023-04-05T19:54:25.186Z,2.60
2023-04-05T19:57:20.326Z,3.00
2023-04-05T20:00:31.485Z,3.15
2023-04-05T20:03:32.196Z,3.13
2023-04-05T20:06:22.125Z,3.30
2023-04-05T20:09:17.408Z,2.90
2023-04-05T20:12:09.392Z,3.28
2023-04-05T20:14:58.969Z,3.00
2023-04-05T20:17:49.859Z,3.22
2023-04-05T20:20:39.396Z,3.10
2023-04-05T20:23:30.798Z,3.33
2023-04-05T20:26:33.376Z,3.03
2023-04-05T20:29:33.398Z,2.90
2023-04-05T20:32:24.096Z,3.30
2023-04-05T20:35:33.318Z,3.10
2023-04-05T20:38:22.619Z,3.10
2023-04-05T20:41:13.562Z,3.10
2023-04-05T20:44:02.909Z,3.17
2023-04-05T20:46:57.129Z,2.85
2023-04-05T20:49:48.900Z,3.00
2023-04-05T20:52:38.211Z,2.75
2023-04-05T20:55:27.840Z,2.97
2023-04-05T20:58:17.520Z,3.05
2023-04-05T21:01:08.711Z,3.00
2023-04-05T21:03:58.051Z,3.25
2023-04-05T21:06:47.511Z,3.10
2023-04-05T21:09:36.841Z,2.78
2023-04-05T21:12:26.115Z,3.00
2023-04-05T21:15:15.395Z,2.90
2023-04-05T21:18:07.078Z,3.15
2023-04-05T21:20:56.598Z,3.15
2023-04-05T21:23:45.929Z,2.90
2023-04-05T21:26:35.167Z,3.00
2023-04-05T21:29:24.520Z,2.92
2023-04-05T21:32:13.760Z,3.17
2023-04-05T21:35:03.129Z,3.50
2023-04-05T21:37:52.435Z,2.75
2023-04-05T21:40:41.911Z,2.70
2023-04-05T21:43:31.283Z,2.83
2023-04-05T21:46:20.819Z,3.38
2023-04-05T21:49:10.237Z,2.80
2023-04-05T21:51:59.587Z,2.75
2023-04-05T21:54:48.826Z,2.90
2023-04-05T21:57:38.091Z,3.00
2023-04-05T22:00:27.946Z,2.95
2023-04-05T22:03:17.593Z,2.70
2023-04-05T22:06:07.118Z,3.17
2023-04-05T22:08:56.599Z,3.00
2023-04-05T22:11:45.942Z,3.10
2023-04-05T22:14:35.256Z,3.53
2023-04-05T22:17:24.639Z,2.97
2023-04-05T22:20:14.387Z,2.90
2023-04-05T22:23:03.756Z,2.80
2023-04-05T22:25:54.356Z,2.83
2023-04-05T22:28:43.603Z,2.85
2023-04-05T22:31:33.378Z,3.05
2023-04-05T22:34:22.717Z,2.70
2023-04-05T22:37:12.321Z,3.08
2023-04-05T22:40:01.857Z,2.70
2023-04-05T22:42:51.150Z,3.08
2023-04-05T22:45:40.667Z,2.88
2023-04-05T22:48:30.026Z,2.80
2023-04-05T22:51:19.391Z,2.80
2023-04-05T22:54:08.710Z,3.28
2023-04-05T22:56:58.020Z,2.30
2023-04-05T22:59:47.632Z,2.72
2023-04-05T23:02:37.046Z,2.75
2023-04-05T23:05:27.298Z,2.75
2023-04-05T23:08:16.595Z,2.80
2023-04-05T23:11:06.154Z,2.40
2023-04-05T23:13:55.466Z,2.50
2023-04-05T23:16:44.781Z,2.58
2023-04-05T23:19:34.237Z,2.80
2023-04-05T23:22:23.584Z,2.65
2023-04-05T23:25:12.836Z,2.53
2023-04-05T23:28:02.161Z,2.65
2023-04-05T23:30:51.463Z,2.78
2023-04-05T23:33:40.835Z,2.80
2023-04-05T23:36:30.230Z,2.80
2023-04-05T23:39:20.436Z,2.60
2023-04-05T23:42:10.229Z,2.63
2023-04-05T23:45:01.389Z,2.83
2023-04-05T23:47:50.827Z,2.75
2023-04-05T23:50:40.228Z,2.60
2023-04-05T23:53:29.557Z,2.67
2023-04-05T23:56:18.989Z,2.95
2023-04-05T23:59:08.640Z,2.58
